createdAt,value
2018-02-27T00:00:00.688Z,-3.27
2018-02-27T00:01:14.944Z,-3.46
2018-02-27T00:02:28.675Z,-3.3
2018-02-27T00:03:42.720Z,-3.36
2018-02-27T00:04:57.312Z,-3.29
2018-02-27T00:06:11.552Z,-3.3
2018-02-27T00:07:25.562Z,-3.25
2018-02-27T00:08:39.586Z,-3.25
2018-02-27T00:09:53.904Z,-3.17
2018-02-27T00:11:08.140Z,-3.17
2018-02-27T00:12:22.177Z,-3.22
2018-02-27T00:13:36.400Z,-3.23
2018-02-27T00:14:50.872Z,-3.27
2018-02-27T00:16:05.178Z,-3.25
2018-02-27T00:17:18.942Z,-3.32
2018-02-27T00:18:33.189Z,-3.33
2018-02-27T00:19:47.165Z,-3.38
2018-02-27T00:21:01.641Z,-3.29
2018-02-27T00:22:15.674Z,-3.27
2018-02-27T00:23:29.922Z,-3.29
2018-02-27T00:24:43.663Z,-3.4
2018-02-27T00:25:57.679Z,-3.44
2018-02-27T00:27:11.176Z,-3.41
2018-02-27T00:28:24.938Z,-3.36
2018-02-27T00:29:38.731Z,-3.37
2018-02-27T00:30:52.727Z,-3.26
2018-02-27T00:32:07.217Z,-3.29
2018-02-27T00:33:20.230Z,-3.33
2018-02-27T00:34:34.524Z,-3.43
2018-02-27T00:35:47.764Z,-3.38
2018-02-27T00:37:02.287Z,-3.46
2018-02-27T00:38:16.424Z,-3.53
2018-02-27T00:39:29.951Z,-3.56
2018-02-27T00:40:44.244Z,-3.51
2018-02-27T00:41:57.560Z,-3.55
2018-02-27T00:43:11.797Z,-3.51
2018-02-27T00:44:25.754Z,-3.5
2018-02-27T00:45:39.760Z,-3.51
2018-02-27T00:46:54.286Z,-3.46
2018-02-27T00:48:07.794Z,-3.43
2018-02-27T00:49:22.040Z,-3.43
2018-02-27T00:50:35.758Z,-3.46
2018-02-27T00:51:49.997Z,-3.55
2018-02-27T00:53:04.796Z,-3.56
2018-02-27T00:54:19.037Z,-3.51
2018-02-27T00:55:33.003Z,-3.59
2018-02-27T00:56:47.248Z,-3.51
2018-02-27T00:58:01.225Z,-3.53
2018-02-27T00:59:15.999Z,-3.47
2018-02-27T01:00:30.477Z,-3.46
2018-02-27T01:01:44.960Z,-3.51
2018-02-27T01:02:59.207Z,-3.51
2018-02-27T01:04:13.204Z,-3.5
2018-02-27T01:05:26.932Z,-3.47
2018-02-27T01:06:40.879Z,-3.43
2018-02-27T01:07:54.953Z,-3.55
2018-02-27T01:09:08.960Z,-3.56
2018-02-27T01:10:23.220Z,-3.55
2018-02-27T01:11:37.640Z,-3.66
2018-02-27T01:12:51.885Z,-3.66
2018-02-27T01:14:06.616Z,-3.74
2018-02-27T01:15:20.856Z,-3.8
2018-02-27T01:16:34.579Z,-3.65
2018-02-27T01:17:48.879Z,-3.71
2018-02-27T01:19:02.896Z,-3.81
2018-02-27T01:20:16.892Z,-3.75
2018-02-27T01:21:31.378Z,-3.77
2018-02-27T01:22:45.365Z,-3.83
2018-02-27T01:23:59.739Z,-3.81
2018-02-27T01:25:13.734Z,-3.77
2018-02-27T01:26:28.484Z,-3.87
2018-02-27T01:27:43.185Z,-3.84
2018-02-27T01:28:57.424Z,-3.85
2018-02-27T01:30:11.478Z,-3.9
2018-02-27T01:31:25.470Z,-3.99
2018-02-27T01:32:39.685Z,-3.98
2018-02-27T01:33:54.157Z,-3.99
2018-02-27T01:35:08.159Z,-4.01
2018-02-27T01:36:23.189Z,-4.04
2018-02-27T01:37:37.384Z,-4.01
2018-02-27T01:38:51.614Z,-4.01
2018-02-27T01:40:06.087Z,-4.13
2018-02-27T01:41:20.101Z,-4.08
2018-02-27T01:42:34.343Z,-4.14
2018-02-27T01:43:48.586Z,-4.08
2018-02-27T01:45:02.688Z,-4.12
2018-02-27T01:46:16.687Z,-4.19
2018-02-27T01:47:30.172Z,-4.08
2018-02-27T01:48:44.659Z,-4.09
2018-02-27T01:49:58.615Z,-4.08
2018-02-27T01:51:12.148Z,-4.01
2018-02-27T01:52:26.184Z,-4.01
2018-02-27T01:53:39.680Z,-4.06
2018-02-27T01:54:54.468Z,-4.26
2018-02-27T01:56:09.200Z,-4.4
2018-02-27T01:57:22.973Z,-4.41
2018-02-27T01:58:37.209Z,-4.31
2018-02-27T01:59:51.691Z,-4.41
2018-02-27T02:01:06.765Z,-4.4
2018-02-27T02:02:21.270Z,-4.42
2018-02-27T02:03:35.581Z,-4.56
2018-02-27T02:04:49.810Z,-4.45
2018-02-27T02:06:03.828Z,-4.45
2018-02-27T02:07:18.562Z,-4.49
2018-02-27T02:08:32.793Z,-4.41
2018-02-27T02:09:46.779Z,-4.38
2018-02-27T02:11:00.235Z,-4.37
2018-02-27T02:12:13.969Z,-4.34
2018-02-27T02:13:28.230Z,-4.38
2018-02-27T02:14:42.226Z,-4.44
2018-02-27T02:15:56.921Z,-4.44
2018-02-27T02:17:11.420Z,-4.41
2018-02-27T02:18:25.305Z,-4.37
2018-02-27T02:19:39.868Z,-4.34
2018-02-27T02:20:54.112Z,-4.37
2018-02-27T02:22:07.937Z,-4.34
2018-02-27T02:23:21.666Z,-4.4
2018-02-27T02:24:36.372Z,-4.33
2018-02-27T02:25:50.884Z,-4.37
2018-02-27T02:27:04.895Z,-4.42
2018-02-27T02:28:19.395Z,-4.47
2018-02-27T02:29:33.396Z,-4.41
2018-02-27T02:30:47.392Z,-4.47
2018-02-27T02:32:01.673Z,-4.44
2018-02-27T02:33:16.153Z,-4.38
2018-02-27T02:34:30.442Z,-4.33
2018-02-27T02:35:44.710Z,-4.41
2018-02-27T02:36:58.442Z,-4.41
2018-02-27T02:38:13.119Z,-4.44
2018-02-27T02:39:27.612Z,-4.49
2018-02-27T02:40:41.838Z,-4.55
2018-02-27T02:41:55.580Z,-4.47
2018-02-27T02:43:09.377Z,-4.59
2018-02-27T02:44:24.137Z,-4.49
2018-02-27T02:45:38.622Z,-4.52
2018-02-27T02:46:52.867Z,-4.53
2018-02-27T02:48:06.816Z,-4.59
2018-02-27T02:49:35.989Z,-4.69
2018-02-27T02:50:50.258Z,-4.74
2018-02-27T02:52:04.527Z,-4.73
2018-02-27T02:53:18.764Z,-4.8
2018-02-27T02:54:31.806Z,-4.81
2018-02-27T02:55:46.547Z,-4.94
2018-02-27T02:57:00.605Z,-4.91
2018-02-27T02:58:14.378Z,-4.98
2018-02-27T02:59:29.260Z,-5.06
2018-02-27T03:00:43.347Z,-5.08
2018-02-27T03:01:57.333Z,-5.05
2018-02-27T03:03:12.073Z,-5.06
2018-02-27T03:04:26.624Z,-5.05
2018-02-27T03:05:41.130Z,-5.09
2018-02-27T03:06:55.358Z,-5.09
2018-02-27T03:08:09.343Z,-5.09
2018-02-27T03:09:23.916Z,-5.13
2018-02-27T03:10:37.695Z,-5.13
2018-02-27T03:11:52.180Z,-5.17
2018-02-27T03:13:06.693Z,-5.13
2018-02-27T03:14:20.953Z,-5.2
2018-02-27T03:15:35.499Z,-5.21
2018-02-27T03:16:49.713Z,-5.25
2018-02-27T03:18:04.212Z,-5.2
2018-02-27T03:19:18.438Z,-5.2
2018-02-27T03:20:32.946Z,-5.23
2018-02-27T03:21:47.724Z,-5.34
2018-02-27T03:23:02.220Z,-5.37
2018-02-27T03:24:16.109Z,-5.35
2018-02-27T03:25:30.318Z,-5.37
2018-02-27T03:26:44.593Z,-5.37
2018-02-27T03:27:58.864Z,-5.43
2018-02-27T03:29:13.116Z,-5.34
2018-02-27T03:30:27.879Z,-5.34
2018-02-27T03:31:41.864Z,-5.43
2018-02-27T03:32:55.655Z,-5.45
2018-02-27T03:34:09.718Z,-5.46
2018-02-27T03:35:24.200Z,-5.39
2018-02-27T03:36:38.413Z,-5.43
2018-02-27T03:37:52.912Z,-5.41
2018-02-27T03:39:07.135Z,-5.41
2018-02-27T03:40:21.358Z,-5.32
2018-02-27T03:41:34.816Z,-5.46
2018-02-27T03:42:48.772Z,-5.48
2018-02-27T03:44:02.975Z,-5.41
2018-02-27T03:45:17.181Z,-5.45
2018-02-27T03:46:31.218Z,-5.38
2018-02-27T03:47:45.443Z,-5.53
2018-02-27T03:48:59.431Z,-5.5
2018-02-27T03:50:13.671Z,-5.53
2018-02-27T03:51:27.673Z,-5.6
2018-02-27T03:52:42.146Z,-5.6
2018-02-27T03:53:55.883Z,-5.63
2018-02-27T03:55:10.118Z,-5.66
2018-02-27T03:56:24.380Z,-5.67
2018-02-27T03:57:38.950Z,-5.63
2018-02-27T03:58:52.786Z,-5.66
2018-02-27T04:00:07.023Z,-5.73
2018-02-27T04:01:21.304Z,-5.71
2018-02-27T04:02:35.782Z,-5.77
2018-02-27T04:03:49.541Z,-5.73
2018-02-27T04:05:04.569Z,-5.76
2018-02-27T04:06:18.591Z,-5.74
2018-02-27T04:07:32.821Z,-5.76
2018-02-27T04:08:47.267Z,-5.74
2018-02-27T04:10:01.532Z,-5.7
2018-02-27T04:11:16.049Z,-5.81
2018-02-27T04:12:30.019Z,-5.84
2018-02-27T04:13:44.248Z,-5.87
2018-02-27T04:14:58.226Z,-5.92
2018-02-27T04:16:12.520Z,-5.87
2018-02-27T04:17:27.335Z,-5.97
2018-02-27T04:18:41.824Z,-5.99
2018-02-27T04:19:55.870Z,-6.03
2018-02-27T04:21:09.614Z,-6.03
2018-02-27T04:22:23.154Z,-6.03
2018-02-27T04:23:37.716Z,-6.05
2018-02-27T04:24:51.462Z,-6.03
2018-02-27T04:26:05.019Z,-6.02
2018-02-27T04:27:18.816Z,-6.05
2018-02-27T04:28:33.057Z,-6.06
2018-02-27T04:29:47.873Z,-6.07
2018-02-27T04:31:01.970Z,-6.07
2018-02-27T04:32:15.841Z,-6.18
2018-02-27T04:33:30.229Z,-6.13
2018-02-27T04:34:44.310Z,-6.1
2018-02-27T04:35:57.862Z,-6.15
2018-02-27T04:37:12.631Z,-6.15
2018-02-27T04:40:40.307Z,-6.24
2018-02-27T04:41:55.072Z,-6.27
2018-02-27T04:43:09.079Z,-6.27
2018-02-27T04:44:23.245Z,-6.31
2018-02-27T04:45:37.321Z,-6.26
2018-02-27T04:46:51.354Z,-6.3
2018-02-27T04:48:05.404Z,-6.26
2018-02-27T04:49:19.693Z,-6.31
2018-02-27T04:50:33.460Z,-6.42
2018-02-27T04:51:47.937Z,-6.42
2018-02-27T04:53:01.701Z,-6.44
2018-02-27T04:54:15.822Z,-6.46
2018-02-27T04:55:29.862Z,-6.39
2018-02-27T04:56:44.384Z,-6.54
2018-02-27T04:57:58.375Z,-6.58
2018-02-27T04:59:12.125Z,-6.51
2018-02-27T05:00:26.117Z,-6.48
2018-02-27T05:01:40.606Z,-6.52
2018-02-27T05:02:55.124Z,-6.52
2018-02-27T05:04:09.464Z,-6.44
2018-02-27T05:05:23.489Z,-6.44
2018-02-27T05:06:38.255Z,-6.45
2018-02-27T05:07:52.983Z,-6.46
2018-02-27T05:09:07.198Z,-6.46
2018-02-27T05:10:21.190Z,-6.48
2018-02-27T05:11:35.167Z,-6.51
2018-02-27T05:12:49.483Z,-6.56
2018-02-27T05:14:02.792Z,-6.52
2018-02-27T05:15:16.871Z,-6.63
2018-02-27T05:16:31.151Z,-6.52
2018-02-27T05:17:44.979Z,-6.49
2018-02-27T05:18:59.061Z,-6.58
2018-02-27T05:20:13.306Z,-6.56
2018-02-27T05:21:27.777Z,-6.56
2018-02-27T05:22:42.020Z,-6.51
2018-02-27T05:23:56.003Z,-6.6
2018-02-27T05:25:10.351Z,-6.68
2018-02-27T05:26:24.100Z,-6.64
2018-02-27T05:27:38.078Z,-6.67
2018-02-27T05:28:52.079Z,-6.78
2018-02-27T05:30:06.091Z,-6.71
2018-02-27T05:31:19.945Z,-6.68
2018-02-27T05:32:33.690Z,-6.71
2018-02-27T05:33:47.670Z,-6.81
2018-02-27T05:35:02.190Z,-6.76
2018-02-27T05:36:16.442Z,-6.71
2018-02-27T05:37:30.847Z,-6.85
2018-02-27T05:38:44.594Z,-6.78
2018-02-27T05:39:58.847Z,-6.96
2018-02-27T05:41:12.594Z,-6.85
2018-02-27T05:42:26.608Z,-6.86
2018-02-27T05:43:41.406Z,-6.86
2018-02-27T05:44:55.428Z,-6.88
2018-02-27T05:46:09.153Z,-6.84
2018-02-27T05:47:23.643Z,-6.89
2018-02-27T05:48:37.630Z,-6.84
2018-02-27T05:49:51.721Z,-6.91
2018-02-27T05:51:05.752Z,-6.95
2018-02-27T05:52:20.026Z,-6.95
2018-02-27T05:53:33.811Z,-6.86
2018-02-27T05:54:47.834Z,-6.88
2018-02-27T05:56:02.388Z,-6.92
2018-02-27T05:57:16.902Z,-6.92
2018-02-27T05:58:30.683Z,-6.89
2018-02-27T05:59:44.505Z,-6.95
2018-02-27T06:00:58.960Z,-6.92
2018-02-27T06:02:13.258Z,-6.91
2018-02-27T06:03:27.296Z,-6.96
2018-02-27T06:04:41.573Z,-6.99
2018-02-27T06:05:55.377Z,-7
2018-02-27T06:07:09.163Z,-6.91
2018-02-27T06:08:23.485Z,-7.05
2018-02-27T06:09:37.755Z,-7.1
2018-02-27T06:10:52.150Z,-7
2018-02-27T06:12:06.685Z,-7.07
2018-02-27T06:13:20.452Z,-7.07
2018-02-27T06:14:35.044Z,-7.05
2018-02-27T06:15:49.317Z,-7.06
2018-02-27T06:17:03.591Z,-7.05
2018-02-27T06:18:17.623Z,-7.09
2018-02-27T06:19:31.445Z,-7.05
2018-02-27T06:20:46.010Z,-7.03
2018-02-27T06:22:00.032Z,-7.06
2018-02-27T06:23:28.964Z,-7.06
2018-02-27T06:24:42.959Z,-7.06
2018-02-27T06:25:56.959Z,-7.02
2018-02-27T06:27:11.256Z,-7.07
2018-02-27T06:28:25.715Z,-7.05
2018-02-27T06:29:39.494Z,-7.17
2018-02-27T06:30:53.536Z,-7.14
2018-02-27T06:32:07.533Z,-7.13
2018-02-27T06:33:22.133Z,-7.24
2018-02-27T06:34:35.916Z,-7.2
2018-02-27T06:35:50.416Z,-7.18
2018-02-27T06:37:04.895Z,-7.25
2018-02-27T06:38:19.133Z,-7.23
2018-02-27T06:39:34.196Z,-7.15
2018-02-27T06:40:48.477Z,-7.03
2018-02-27T06:42:03.247Z,-7.2
2018-02-27T06:43:17.348Z,-7.07
2018-02-27T06:44:31.592Z,-7.1
2018-02-27T06:45:45.915Z,-7.05
2018-02-27T06:47:00.385Z,-7.06
2018-02-27T06:48:14.697Z,-7.03
2018-02-27T06:49:29.014Z,-7.06
2018-02-27T06:50:43.759Z,-7.15
2018-02-27T06:51:57.606Z,-7.2
2018-02-27T06:53:11.887Z,-7.05
2018-02-27T06:54:25.887Z,-7.1
2018-02-27T06:55:39.880Z,-7
2018-02-27T06:56:53.654Z,-7
2018-02-27T06:58:07.975Z,-6.97
2018-02-27T06:59:21.958Z,-7
2018-02-27T07:00:35.967Z,-7.03
2018-02-27T07:01:49.963Z,-6.99
2018-02-27T07:03:03.699Z,-7.1
2018-02-27T07:04:17.719Z,-7.07
2018-02-27T07:05:32.005Z,-7.06
2018-02-27T07:06:46.008Z,-7.09
2018-02-27T07:08:00.232Z,-7
2018-02-27T07:09:14.712Z,-7.05
2018-02-27T07:10:29.265Z,-7
2018-02-27T07:11:43.733Z,-6.91
2018-02-27T07:12:57.505Z,-6.97
2018-02-27T07:14:11.509Z,-6.95
2018-02-27T07:15:25.722Z,-6.96
2018-02-27T07:16:39.886Z,-7
2018-02-27T07:17:53.897Z,-6.96
2018-02-27T07:19:08.224Z,-7.06
2018-02-27T07:20:22.511Z,-7.09
2018-02-27T07:21:36.298Z,-7.07
2018-02-27T07:22:50.573Z,-7.17
2018-02-27T07:24:04.576Z,-7.13
2018-02-27T07:25:19.069Z,-7.14
2018-02-27T07:26:33.577Z,-7.14
2018-02-27T07:27:48.309Z,-7.07
2018-02-27T07:29:02.613Z,-7.03
2018-02-27T07:30:16.724Z,-7.06
2018-02-27T07:31:30.728Z,-7.15
2018-02-27T07:32:44.207Z,-7.2
2018-02-27T07:33:58.192Z,-7.18
2018-02-27T07:35:12.269Z,-7.1
2018-02-27T07:36:26.893Z,-7.05
2018-02-27T07:37:41.143Z,-7.09
2018-02-27T07:38:55.615Z,-7
2018-02-27T07:40:09.346Z,-6.97
2018-02-27T07:41:23.641Z,-7.02
2018-02-27T07:42:37.883Z,-6.97
2018-02-27T07:43:52.171Z,-6.95
2018-02-27T07:45:06.670Z,-6.89
2018-02-27T07:46:20.426Z,-6.89
2018-02-27T07:47:34.976Z,-6.92
2018-02-27T07:48:49.468Z,-6.96
2018-02-27T07:50:04.054Z,-6.92
2018-02-27T07:51:18.537Z,-6.92
2018-02-27T07:52:32.591Z,-6.96
2018-02-27T07:53:46.996Z,-7.13
2018-02-27T07:55:01.315Z,-7.03
2018-02-27T07:56:15.345Z,-6.97
2018-02-27T07:57:29.340Z,-6.95
2018-02-27T07:58:44.044Z,-7.07
2018-02-27T07:59:58.094Z,-7.09
2018-02-27T08:01:12.093Z,-7
2018-02-27T08:02:26.365Z,-6.97
2018-02-27T08:03:40.095Z,-6.95
2018-02-27T08:04:54.812Z,-6.99
2018-02-27T08:06:09.459Z,-6.97
2018-02-27T08:07:23.192Z,-6.95
2018-02-27T08:08:37.955Z,-6.82
2018-02-27T08:09:52.195Z,-6.95
2018-02-27T08:11:06.176Z,-7.05
2018-02-27T08:12:20.718Z,-6.92
2018-02-27T08:13:34.968Z,-6.89
2018-02-27T08:14:48.731Z,-6.92
2018-02-27T08:16:02.967Z,-6.86
2018-02-27T08:17:16.775Z,-6.81
2018-02-27T08:18:31.055Z,-6.78
2018-02-27T08:19:45.066Z,-6.73
2018-02-27T08:20:59.084Z,-6.71
2018-02-27T08:22:13.577Z,-6.71
2018-02-27T08:23:27.692Z,-6.7
2018-02-27T08:24:42.029Z,-6.67
2018-02-27T08:25:56.260Z,-6.73
2018-02-27T08:27:10.294Z,-6.66
2018-02-27T08:28:24.523Z,-6.75
2018-02-27T08:29:38.299Z,-6.68
2018-02-27T08:30:53.152Z,-6.54
2018-02-27T08:32:07.421Z,-6.46
2018-02-27T08:33:21.174Z,-6.6
2018-02-27T08:34:35.472Z,-6.49
2018-02-27T08:35:49.731Z,-6.49
2018-02-27T08:37:04.356Z,-6.42
2018-02-27T08:38:18.384Z,-6.52
2018-02-27T08:39:32.946Z,-6.6
2018-02-27T08:40:47.192Z,-6.49
2018-02-27T08:42:01.441Z,-6.42
2018-02-27T08:43:15.506Z,-6.33
2018-02-27T08:44:29.537Z,-6.33
2018-02-27T08:45:43.555Z,-6.24
2018-02-27T08:46:57.776Z,-6.24
2018-02-27T08:48:11.313Z,-6.23
2018-02-27T08:49:25.539Z,-6.27
2018-02-27T08:50:39.590Z,-6.24
2018-02-27T08:51:53.608Z,-6.26
2018-02-27T08:53:07.627Z,-6.16
2018-02-27T08:54:21.617Z,-6.3
2018-02-27T08:55:36.143Z,-6.21
2018-02-27T08:56:51.016Z,-6.2
2018-02-27T08:58:04.855Z,-6.06
2018-02-27T08:59:18.626Z,-6.12
2018-02-27T09:00:33.141Z,-6.18
2018-02-27T09:01:47.709Z,-6.16
2018-02-27T09:03:02.004Z,-6.12
2018-02-27T09:04:15.791Z,-6.16
2018-02-27T09:05:30.049Z,-6.27
2018-02-27T09:06:44.327Z,-6.26
2018-02-27T09:07:59.110Z,-6.1
2018-02-27T09:09:12.896Z,-6.15
2018-02-27T09:10:26.931Z,-6.07
2018-02-27T09:11:41.199Z,-6.05
2018-02-27T09:12:54.987Z,-6.15
2018-02-27T09:14:09.284Z,-6.12
2018-02-27T09:15:23.034Z,-6.15
2018-02-27T09:16:37.025Z,-6.1
2018-02-27T09:17:51.037Z,-6.21
2018-02-27T09:19:04.792Z,-6.23
2018-02-27T09:20:19.482Z,-6.16
2018-02-27T09:21:33.973Z,-5.99
2018-02-27T09:22:47.964Z,-5.97
2018-02-27T09:24:01.986Z,-6
2018-02-27T09:25:16.045Z,-5.85
2018-02-27T09:26:30.135Z,-5.89
2018-02-27T09:27:43.652Z,-5.92
2018-02-27T09:28:57.868Z,-5.92
2018-02-27T09:30:11.566Z,-5.88
2018-02-27T09:31:26.131Z,-5.87
2018-02-27T09:32:40.685Z,-5.74
2018-02-27T09:33:54.939Z,-5.84
2018-02-27T09:35:09.242Z,-5.76
2018-02-27T09:36:23.518Z,-5.67
2018-02-27T09:37:37.656Z,-5.68
2018-02-27T09:38:52.574Z,-5.84
2018-02-27T09:40:06.836Z,-5.77
2018-02-27T09:41:21.359Z,-5.76
2018-02-27T09:42:35.369Z,-5.7
2018-02-27T09:43:49.133Z,-5.6
2018-02-27T09:45:03.452Z,-5.68
2018-02-27T09:46:17.708Z,-5.74
2018-02-27T09:47:31.952Z,-5.7
2018-02-27T09:48:45.709Z,-5.71
2018-02-27T09:49:59.477Z,-5.73
2018-02-27T09:51:14.017Z,-5.76
2018-02-27T09:52:27.986Z,-5.74
2018-02-27T09:53:42.475Z,-5.56
2018-02-27T09:54:56.250Z,-5.56
2018-02-27T09:56:10.763Z,-5.59
2018-02-27T09:57:25.273Z,-5.63
2018-02-27T09:58:39.567Z,-5.52
2018-02-27T09:59:53.890Z,-5.45
2018-02-27T10:01:08.160Z,-5.32
2018-02-27T10:02:22.405Z,-5.41
2018-02-27T10:03:36.517Z,-5.53
2018-02-27T10:05:05.701Z,-5.45
2018-02-27T10:06:20.556Z,-5.34
2018-02-27T10:07:34.806Z,-5.45
2018-02-27T10:08:49.383Z,-5.32
2018-02-27T10:10:03.151Z,-5.43
2018-02-27T10:11:16.904Z,-5.41
2018-02-27T10:12:31.419Z,-5.59
2018-02-27T10:13:45.712Z,-5.55
2018-02-27T10:15:00.269Z,-5.53
2018-02-27T10:16:14.530Z,-5.49
2018-02-27T10:17:28.343Z,-5.39
2018-02-27T10:18:42.602Z,-5.27
2018-02-27T10:19:56.854Z,-5.32
2018-02-27T10:21:11.214Z,-5.23
2018-02-27T10:22:24.985Z,-5.17
2018-02-27T10:23:39.479Z,-5.25
2018-02-27T10:24:53.952Z,-5.27
2018-02-27T10:26:08.003Z,-5.37
2018-02-27T10:27:22.041Z,-5.37
2018-02-27T10:28:36.192Z,-5.27
2018-02-27T10:29:50.229Z,-5.05
2018-02-27T10:31:04.798Z,-5.19
2018-02-27T10:32:19.346Z,-5.19
2018-02-27T10:33:34.204Z,-5.21
2018-02-27T10:34:48.455Z,-5.12
2018-02-27T10:36:03.011Z,-5.12
2018-02-27T10:37:17.496Z,-5.12
2018-02-27T10:38:31.747Z,-5.12
2018-02-27T10:39:46.328Z,-4.98
2018-02-27T10:41:01.084Z,-5.09
2018-02-27T10:42:14.852Z,-5.01
2018-02-27T10:43:28.641Z,-4.92
2018-02-27T10:44:42.607Z,-4.79
2018-02-27T10:45:57.414Z,-4.7
2018-02-27T10:47:11.624Z,-4.81
2018-02-27T10:48:26.138Z,-4.74
2018-02-27T10:49:40.134Z,-4.79
2018-02-27T10:50:54.368Z,-4.79
2018-02-27T10:52:09.200Z,-4.65
2018-02-27T10:53:23.679Z,-4.65
2018-02-27T10:54:37.953Z,-4.81
2018-02-27T10:55:52.205Z,-4.76
2018-02-27T10:57:06.702Z,-4.7
2018-02-27T10:58:21.644Z,-4.65
2018-02-27T10:59:35.663Z,-4.59
2018-02-27T11:00:49.963Z,-4.59
2018-02-27T11:02:04.246Z,-4.58
2018-02-27T11:03:18.470Z,-4.44
2018-02-27T11:04:32.548Z,-4.38
2018-02-27T11:05:46.554Z,-4.38
2018-02-27T11:07:01.311Z,-4.47
2018-02-27T11:08:15.578Z,-4.42
2018-02-27T11:09:29.241Z,-4.51
2018-02-27T11:10:44.031Z,-4.42
2018-02-27T11:11:58.572Z,-4.4
2018-02-27T11:13:12.848Z,-4.45
2018-02-27T11:14:27.352Z,-4.26
2018-02-27T11:15:41.798Z,-4.23
2018-02-27T11:16:55.886Z,-4.2
2018-02-27T11:18:10.133Z,-4.19
2018-02-27T11:19:24.613Z,-4.27
2018-02-27T11:20:38.859Z,-4.17
2018-02-27T11:21:53.335Z,-4.33
2018-02-27T11:23:08.114Z,-4.19
2018-02-27T11:24:22.091Z,-4.33
2018-02-27T11:25:36.333Z,-4.3
2018-02-27T11:26:50.827Z,-4.13
2018-02-27T11:28:04.842Z,-4.12
2018-02-27T11:29:19.197Z,-4.16
2018-02-27T11:30:33.422Z,-4.01
2018-02-27T11:31:47.207Z,-3.81
2018-02-27T11:33:01.460Z,-3.81
2018-02-27T11:34:16.027Z,-3.83
2018-02-27T11:35:29.573Z,-3.91
2018-02-27T11:36:42.786Z,-3.9
2018-02-27T11:37:56.872Z,-3.83
2018-02-27T11:39:10.633Z,-3.94
2018-02-27T11:40:25.331Z,-3.96
2018-02-27T11:41:39.125Z,-4.06
2018-02-27T11:42:53.303Z,-3.98
2018-02-27T11:44:07.879Z,-3.91
2018-02-27T11:45:21.895Z,-3.84
2018-02-27T11:46:35.921Z,-3.98
2018-02-27T11:47:50.484Z,-3.91
2018-02-27T11:49:05.029Z,-3.85
2018-02-27T11:50:19.845Z,-3.94
2018-02-27T11:51:34.357Z,-3.84
2018-02-27T11:52:47.864Z,-3.85
2018-02-27T11:54:02.193Z,-3.95
2018-02-27T11:55:16.624Z,-3.84
2018-02-27T11:56:30.935Z,-3.83
2018-02-27T11:57:45.216Z,-3.8
2018-02-27T11:58:59.519Z,-3.81
2018-02-27T12:00:13.647Z,-3.8
2018-02-27T12:01:27.904Z,-3.69
2018-02-27T12:02:41.773Z,-3.59
2018-02-27T12:03:56.055Z,-3.65
2018-02-27T12:05:10.593Z,-3.58
2018-02-27T12:06:25.431Z,-3.53
2018-02-27T12:07:39.475Z,-3.51
2018-02-27T12:08:53.471Z,-3.44
2018-02-27T12:10:07.740Z,-3.32
2018-02-27T12:11:22.263Z,-3.41
2018-02-27T12:12:36.276Z,-3.56
2018-02-27T12:13:50.073Z,-3.61
2018-02-27T12:15:04.400Z,-3.51
2018-02-27T12:16:19.057Z,-3.55
2018-02-27T12:17:33.313Z,-3.46
2018-02-27T12:18:48.110Z,-3.32
2018-02-27T12:20:02.148Z,-3.4
2018-02-27T12:21:15.684Z,-3.32
2018-02-27T12:22:29.820Z,-3.3
2018-02-27T12:23:44.107Z,-3.33
2018-02-27T12:24:58.903Z,-3.36
2018-02-27T12:26:13.205Z,-3.36
2018-02-27T12:27:27.473Z,-3.26
2018-02-27T12:28:41.761Z,-3.25
2018-02-27T12:29:56.037Z,-3.37
2018-02-27T12:31:10.816Z,-3.36
2018-02-27T12:32:25.585Z,-3.15
2018-02-27T12:33:40.108Z,-3.17
2018-02-27T12:34:54.611Z,-3.02
2018-02-27T12:36:08.844Z,-3.02
2018-02-27T12:37:23.662Z,-3.05
2018-02-27T12:38:38.000Z,-3.09
2018-02-27T12:39:52.259Z,-3.01
2018-02-27T12:41:06.253Z,-3.19
2018-02-27T12:42:20.255Z,-3.12
2018-02-27T12:43:35.071Z,-3.04
2018-02-27T12:44:49.847Z,-3.12
2018-02-27T12:46:04.401Z,-3.08
2018-02-27T12:47:18.444Z,-3.17
2018-02-27T12:48:32.965Z,-2.99
2018-02-27T12:49:47.903Z,-2.98
2018-02-27T12:51:01.952Z,-2.89
2018-02-27T12:52:16.466Z,-2.87
2018-02-27T12:53:30.520Z,-2.87
2018-02-27T12:54:45.091Z,-2.89
2018-02-27T12:55:58.963Z,-3.01
2018-02-27T12:57:12.993Z,-2.94
2018-02-27T12:58:27.094Z,-2.91
2018-02-27T12:59:41.900Z,-2.93
2018-02-27T13:00:55.666Z,-2.78
2018-02-27T13:02:10.702Z,-2.76
2018-02-27T13:03:24.748Z,-2.84
2018-02-27T13:04:39.570Z,-2.73
2018-02-27T13:05:53.840Z,-2.76
2018-02-27T13:07:08.104Z,-2.78
2018-02-27T13:08:22.700Z,-2.61
2018-02-27T13:09:37.211Z,-2.62
2018-02-27T13:10:50.961Z,-2.57
2018-02-27T13:12:04.982Z,-2.58
2018-02-27T13:13:19.685Z,-2.69
2018-02-27T13:14:33.028Z,-2.63
2018-02-27T13:15:47.126Z,-2.69
2018-02-27T13:17:01.458Z,-2.76
2018-02-27T13:18:16.466Z,-2.78
2018-02-27T13:19:30.870Z,-2.7
2018-02-27T13:20:45.005Z,-2.61
2018-02-27T13:21:59.832Z,-2.45
2018-02-27T13:23:14.447Z,-2.4
2018-02-27T13:24:29.035Z,-2.61
2018-02-27T13:25:43.432Z,-2.51
2018-02-27T13:26:58.036Z,-2.57
2018-02-27T13:28:12.335Z,-2.47
2018-02-27T13:29:26.841Z,-2.4
2018-02-27T13:30:40.849Z,-2.2
2018-02-27T13:31:55.126Z,-2.23
2018-02-27T13:33:09.692Z,-2.25
2018-02-27T13:34:24.201Z,-2.36
2018-02-27T13:35:38.010Z,-2.4
2018-02-27T13:36:52.051Z,-2.4
2018-02-27T13:38:06.086Z,-2.37
2018-02-27T13:39:19.940Z,-2.47
2018-02-27T13:40:34.212Z,-2.42
2018-02-27T13:41:48.986Z,-2.37
2018-02-27T13:43:03.614Z,-2.29
2018-02-27T13:44:17.896Z,-2.33
2018-02-27T13:45:32.714Z,-2.17
2018-02-27T13:46:46.006Z,-2.22
2018-02-27T13:47:59.841Z,-2.34
2018-02-27T13:49:13.214Z,-2.37
2018-02-27T13:50:34.731Z,-2.29
2018-02-27T13:51:49.521Z,-2.29
2018-02-27T13:53:03.492Z,-2.33
2018-02-27T13:54:17.810Z,-2.39
2018-02-27T13:55:31.580Z,-2.36
2018-02-27T13:56:45.947Z,-2.32
2018-02-27T13:58:00.316Z,-2.15
2018-02-27T13:59:14.398Z,-2.2
2018-02-27T14:00:28.427Z,-2.13
2018-02-27T14:01:42.927Z,-1.94
2018-02-27T14:02:57.190Z,-1.96
2018-02-27T14:04:11.992Z,-1.87
2018-02-27T14:05:26.257Z,-1.86
2018-02-27T14:06:40.015Z,-2
2018-02-27T14:07:53.548Z,-2.1
2018-02-27T14:09:07.328Z,-2.11
2018-02-27T14:10:20.831Z,-2.13
2018-02-27T14:11:35.334Z,-1.99
2018-02-27T14:12:49.326Z,-2.02
2018-02-27T14:14:03.562Z,-2.18
2018-02-27T14:15:17.847Z,-2.17
2018-02-27T14:16:32.419Z,-2.18
2018-02-27T14:17:46.409Z,-2.05
2018-02-27T14:19:00.912Z,-2.07
2018-02-27T14:20:15.409Z,-2.08
2018-02-27T14:21:29.719Z,-2.2
2018-02-27T14:22:43.999Z,-2.13
2018-02-27T14:23:58.217Z,-2.2
2018-02-27T14:25:12.488Z,-2.17
2018-02-27T14:26:27.074Z,-2.13
2018-02-27T14:27:41.641Z,-2.07
2018-02-27T14:28:55.956Z,-2.13
2018-02-27T14:30:10.359Z,-2.14
2018-02-27T14:31:24.158Z,-2.15
2018-02-27T14:32:38.534Z,-2.13
2018-02-27T14:33:52.823Z,-2.14
2018-02-27T14:35:07.136Z,-2.1
2018-02-27T14:36:21.407Z,-2.04
2018-02-27T14:37:35.478Z,-2.02
2018-02-27T14:38:49.989Z,-2.1
2018-02-27T14:40:04.026Z,-2.05
2018-02-27T14:41:18.285Z,-2.17
2018-02-27T14:42:32.561Z,-2.02
2018-02-27T14:43:46.856Z,-2.1
2018-02-27T14:45:01.145Z,-2.1
2018-02-27T14:46:15.216Z,-2.04
2018-02-27T14:47:29.270Z,-2.02
2018-02-27T14:48:43.552Z,-1.87
2018-02-27T14:49:57.633Z,-1.84
2018-02-27T14:51:11.955Z,-1.76
2018-02-27T14:52:26.233Z,-1.89
2018-02-27T14:53:40.524Z,-1.9
2018-02-27T14:54:55.059Z,-1.94
2018-02-27T14:56:08.631Z,-1.93
2018-02-27T14:57:22.904Z,-1.87
2018-02-27T14:58:36.205Z,-1.87
2018-02-27T14:59:50.240Z,-1.9
2018-02-27T15:01:04.296Z,-1.82
2018-02-27T15:02:18.403Z,-1.99
2018-02-27T15:03:32.784Z,-1.82
2018-02-27T15:04:46.572Z,-1.86
2018-02-27T15:06:00.109Z,-1.87
2018-02-27T15:07:14.648Z,-1.86
2018-02-27T15:08:28.905Z,-1.93
2018-02-27T15:09:43.180Z,-1.86
2018-02-27T15:10:57.414Z,-1.93
2018-02-27T15:12:11.966Z,-1.97
2018-02-27T15:13:26.498Z,-1.9
2018-02-27T15:14:40.763Z,-1.89
2018-02-27T15:15:55.534Z,-1.92
2018-02-27T15:17:09.552Z,-1.9
2018-02-27T15:18:24.298Z,-1.93
2018-02-27T15:19:38.790Z,-1.82
2018-02-27T15:20:53.545Z,-1.78
2018-02-27T15:22:08.050Z,-1.89
2018-02-27T15:23:22.275Z,-1.92
2018-02-27T15:24:36.295Z,-1.86
2018-02-27T15:25:50.579Z,-1.92
2018-02-27T15:27:04.863Z,-1.89
2018-02-27T15:28:18.899Z,-1.92
2018-02-27T15:29:33.411Z,-1.89
2018-02-27T15:30:47.916Z,-1.89
2018-02-27T15:32:01.949Z,-1.9
2018-02-27T15:33:16.070Z,-1.69
2018-02-27T15:34:30.553Z,-1.76
2018-02-27T15:35:45.067Z,-1.87
2018-02-27T15:36:58.935Z,-1.87
2018-02-27T15:38:13.393Z,-1.92
2018-02-27T15:39:27.394Z,-1.87
2018-02-27T15:40:41.814Z,-1.97
2018-02-27T15:41:55.617Z,-1.86
2018-02-27T15:43:09.676Z,-1.87
2018-02-27T15:44:23.991Z,-1.87
2018-02-27T15:45:37.568Z,-1.82
2018-02-27T15:46:51.823Z,-1.84
2018-02-27T15:48:06.161Z,-1.79
2018-02-27T15:49:20.883Z,-1.9
2018-02-27T15:50:35.377Z,-1.93
2018-02-27T15:51:50.035Z,-2
2018-02-27T15:53:04.823Z,-2.05
2018-02-27T15:54:19.321Z,-1.97
2018-02-27T15:55:33.844Z,-2.08
2018-02-27T15:56:47.656Z,-1.99
2018-02-27T15:58:02.234Z,-1.93
2018-02-27T15:59:16.059Z,-1.9
2018-02-27T16:00:30.100Z,-1.89
2018-02-27T16:01:43.932Z,-2.05
2018-02-27T16:02:57.975Z,-2